sensor_id;sensor_type;location;lat;lon;timestamp;temperature;humidity
68485;DHT22;55472;50.060;21.960;2022-10-22T00:01:04;11.00;59.70
68485;DHT22;55472;50.060;21.960;2022-10-22T00:03:36;11.00;60.00
68485;DHT22;55472;50.060;21.960;2022-10-22T00:06:02;11.00;60.10
68485;DHT22;55472;50.060;21.960;2022-10-22T00:08:29;11.00;60.30
68485;DHT22;55472;50.060;21.960;2022-10-22T00:10:55;10.90;60.30
68485;DHT22;55472;50.060;21.960;2022-10-22T00:13:21;10.90;60.50
68485;DHT22;55472;50.060;21.960;2022-10-22T00:15:48;10.90;60.60
68485;DHT22;55472;50.060;21.960;2022-10-22T00:18:14;10.90;60.70
68485;DHT22;55472;50.060;21.960;2022-10-22T00:20:40;10.90;60.50
68485;DHT22;55472;50.060;21.960;2022-10-22T00:23:06;10.90;60.20
68485;DHT22;55472;50.060;21.960;2022-10-22T00:25:34;11.00;60.00
68485;DHT22;55472;50.060;21.960;2022-10-22T00:28:02;11.00;60.00
68485;DHT22;55472;50.060;21.960;2022-10-22T00:30:28;11.00;59.90
68485;DHT22;55472;50.060;21.960;2022-10-22T00:32:54;11.00;59.70
68485;DHT22;55472;50.060;21.960;2022-10-22T00:35:20;11.10;59.60
68485;DHT22;55472;50.060;21.960;2022-10-22T00:37:46;11.10;59.50
68485;DHT22;55472;50.060;21.960;2022-10-22T00:40:11;11.10;59.40
68485;DHT22;55472;50.060;21.960;2022-10-22T00:42:38;11.10;59.40
68485;DHT22;55472;50.060;21.960;2022-10-22T00:53:10;11.20;58.40
68485;DHT22;55472;50.060;21.960;2022-10-22T00:55:39;11.20;58.20
68485;DHT22;55472;50.060;21.960;2022-10-22T00:58:06;11.20;58.20
68485;DHT22;55472;50.060;21.960;2022-10-22T01:00:33;11.20;58.20
68485;DHT22;55472;50.060;21.960;2022-10-22T01:02:59;11.30;58.00
68485;DHT22;55472;50.060;21.960;2022-10-22T01:05:30;11.20;58.00
68485;DHT22;55472;50.060;21.960;2022-10-22T01:07:59;11.30;58.10
68485;DHT22;55472;50.060;21.960;2022-10-22T01:10:54;11.20;58.20
68485;DHT22;55472;50.060;21.960;2022-10-22T01:22:29;11.20;58.30
68485;DHT22;55472;50.060;21.960;2022-10-22T01:25:04;11.20;58.30
68485;DHT22;55472;50.060;21.960;2022-10-22T01:27:42;11.20;58.50
68485;DHT22;55472;50.060;21.960;2022-10-22T01:30:18;11.20;58.50
68485;DHT22;55472;50.060;21.960;2022-10-22T01:32:50;11.10;58.80
68485;DHT22;55472;50.060;21.960;2022-10-22T01:35:26;11.10;58.70
68485;DHT22;55472;50.060;21.960;2022-10-22T01:38:00;11.10;58.50
68485;DHT22;55472;50.060;21.960;2022-10-22T01:40:29;11.10;58.60
68485;DHT22;55472;50.060;21.960;2022-10-22T01:43:07;11.10;58.70
68485;DHT22;55472;50.060;21.960;2022-10-22T01:45:50;11.10;58.70
68485;DHT22;55472;50.060;21.960;2022-10-22T01:59:45;11.10;59.20
68485;DHT22;55472;50.060;21.960;2022-10-22T02:10:53;11.10;59.50
68485;DHT22;55472;50.060;21.960;2022-10-22T02:13:25;11.10;59.70
68485;DHT22;55472;50.060;21.960;2022-10-22T02:15:55;11.10;59.60
68485;DHT22;55472;50.060;21.960;2022-10-22T02:18:27;11.10;59.70
68485;DHT22;55472;50.060;21.960;2022-10-22T02:20:55;11.10;59.80
68485;DHT22;55472;50.060;21.960;2022-10-22T02:23:22;11.10;59.80
68485;DHT22;55472;50.060;21.960;2022-10-22T02:25:53;11.10;60.20
68485;DHT22;55472;50.060;21.960;2022-10-22T02:28:36;11.10;60.10
68485;DHT22;55472;50.060;21.960;2022-10-22T02:31:13;11.00;60.20
68485;DHT22;55472;50.060;21.960;2022-10-22T02:33:45;11.00;60.20
68485;DHT22;55472;50.060;21.960;2022-10-22T02:36:15;11.00;60.30
68485;DHT22;55472;50.060;21.960;2022-10-22T02:38:42;11.00;60.40
68485;DHT22;55472;50.060;21.960;2022-10-22T02:41:08;11.00;60.40
68485;DHT22;55472;50.060;21.960;2022-10-22T02:43:42;10.90;60.40
68485;DHT22;55472;50.060;21.960;2022-10-22T02:46:10;11.00;60.30
68485;DHT22;55472;50.060;21.960;2022-10-22T02:48:36;10.90;60.40
68485;DHT22;55472;50.060;21.960;2022-10-22T02:51:02;10.90;60.50
68485;DHT22;55472;50.060;21.960;2022-10-22T02:53:28;10.90;60.50
68485;DHT22;55472;50.060;21.960;2022-10-22T02:55:54;10.90;60.50
68485;DHT22;55472;50.060;21.960;2022-10-22T02:58:20;10.90;60.40
68485;DHT22;55472;50.060;21.960;2022-10-22T03:00:47;10.90;60.40
68485;DHT22;55472;50.060;21.960;2022-10-22T03:03:13;10.90;60.50
68485;DHT22;55472;50.060;21.960;2022-10-22T03:05:39;10.90;60.70
68485;DHT22;55472;50.060;21.960;2022-10-22T03:08:05;10.80;60.80
68485;DHT22;55472;50.060;21.960;2022-10-22T03:10:31;10.80;60.80
68485;DHT22;55472;50.060;21.960;2022-10-22T03:12:57;10.80;60.70
68485;DHT22;55472;50.060;21.960;2022-10-22T03:15:23;10.70;60.80
68485;DHT22;55472;50.060;21.960;2022-10-22T03:17:49;10.70;61.00
68485;DHT22;55472;50.060;21.960;2022-10-22T03:20:15;10.60;61.10
68485;DHT22;55472;50.060;21.960;2022-10-22T03:22:41;10.60;61.10
68485;DHT22;55472;50.060;21.960;2022-10-22T03:25:12;10.60;61.30
68485;DHT22;55472;50.060;21.960;2022-10-22T03:27:41;10.60;61.40
68485;DHT22;55472;50.060;21.960;2022-10-22T03:30:08;10.50;61.50
68485;DHT22;55472;50.060;21.960;2022-10-22T03:32:35;10.50;61.40
68485;DHT22;55472;50.060;21.960;2022-10-22T03:35:01;10.50;61.70
68485;DHT22;55472;50.060;21.960;2022-10-22T03:37:27;10.50;61.70
68485;DHT22;55472;50.060;21.960;2022-10-22T03:39:54;10.40;61.80
68485;DHT22;55472;50.060;21.960;2022-10-22T03:42:20;10.40;61.90
68485;DHT22;55472;50.060;21.960;2022-10-22T03:44:47;10.40;62.00
68485;DHT22;55472;50.060;21.960;2022-10-22T03:47:12;10.40;62.00
68485;DHT22;55472;50.060;21.960;2022-10-22T03:49:38;10.40;61.90
68485;DHT22;55472;50.060;21.960;2022-10-22T03:52:09;10.40;61.90
68485;DHT22;55472;50.060;21.960;2022-10-22T03:54:37;10.40;61.80
68485;DHT22;55472;50.060;21.960;2022-10-22T03:57:04;10.40;61.70
68485;DHT22;55472;50.060;21.960;2022-10-22T03:59:39;10.40;61.50
68485;DHT22;55472;50.060;21.960;2022-10-22T04:02:08;10.50;61.30
68485;DHT22;55472;50.060;21.960;2022-10-22T04:04:35;10.50;61.20
68485;DHT22;55472;50.060;21.960;2022-10-22T04:07:02;10.50;61.10
68485;DHT22;55472;50.060;21.960;2022-10-22T04:09:33;10.50;61.00
68485;DHT22;55472;50.060;21.960;2022-10-22T04:11:59;10.50;61.00
68485;DHT22;55472;50.060;21.960;2022-10-22T04:14:25;10.50;61.20
68485;DHT22;55472;50.060;21.960;2022-10-22T04:16:51;10.50;61.20
68485;DHT22;55472;50.060;21.960;2022-10-22T04:19:17;10.50;61.10
68485;DHT22;55472;50.060;21.960;2022-10-22T04:21:43;10.40;61.30
68485;DHT22;55472;50.060;21.960;2022-10-22T04:24:09;10.40;61.30
68485;DHT22;55472;50.060;21.960;2022-10-22T04:26:35;10.40;61.40
68485;DHT22;55472;50.060;21.960;2022-10-22T04:29:02;10.30;61.60
68485;DHT22;55472;50.060;21.960;2022-10-22T04:31:28;10.30;61.50
68485;DHT22;55472;50.060;21.960;2022-10-22T04:33:56;10.30;61.50
68485;DHT22;55472;50.060;21.960;2022-10-22T04:36:23;10.30;61.60
68485;DHT22;55472;50.060;21.960;2022-10-22T04:38:57;10.20;61.80
68485;DHT22;55472;50.060;21.960;2022-10-22T04:41:30;10.20;62.00
68485;DHT22;55472;50.060;21.960;2022-10-22T04:43:58;10.20;62.00
68485;DHT22;55472;50.060;21.960;2022-10-22T04:46:26;10.10;62.00
68485;DHT22;55472;50.060;21.960;2022-10-22T04:48:53;10.10;62.10
68485;DHT22;55472;50.060;21.960;2022-10-22T04:51:21;10.10;62.20
68485;DHT22;55472;50.060;21.960;2022-10-22T04:53:48;10.00;62.30
68485;DHT22;55472;50.060;21.960;2022-10-22T04:56:19;10.00;62.60
68485;DHT22;55472;50.060;21.960;2022-10-22T04:58:58;10.00;62.60
68485;DHT22;55472;50.060;21.960;2022-10-22T05:01:34;10.00;62.60
68485;DHT22;55472;50.060;21.960;2022-10-22T05:04:03;10.00;62.80
68485;DHT22;55472;50.060;21.960;2022-10-22T05:06:32;9.90;62.80
68485;DHT22;55472;50.060;21.960;2022-10-22T05:09:09;9.90;63.00
68485;DHT22;55472;50.060;21.960;2022-10-22T05:11:38;9.90;63.20
68485;DHT22;55472;50.060;21.960;2022-10-22T05:14:11;9.90;63.20
68485;DHT22;55472;50.060;21.960;2022-10-22T05:16:37;9.90;63.30
68485;DHT22;55472;50.060;21.960;2022-10-22T05:19:04;9.90;63.40
68485;DHT22;55472;50.060;21.960;2022-10-22T05:21:31;9.90;63.40
68485;DHT22;55472;50.060;21.960;2022-10-22T05:23:58;9.90;63.50
68485;DHT22;55472;50.060;21.960;2022-10-22T05:26:27;9.90;63.50
68485;DHT22;55472;50.060;21.960;2022-10-22T05:28:54;9.90;63.60
68485;DHT22;55472;50.060;21.960;2022-10-22T05:31:20;10.00;63.50
68485;DHT22;55472;50.060;21.960;2022-10-22T05:33:46;10.10;63.40
68485;DHT22;55472;50.060;21.960;2022-10-22T05:36:15;10.10;63.30
68485;DHT22;55472;50.060;21.960;2022-10-22T05:38:43;10.20;63.20
68485;DHT22;55472;50.060;21.960;2022-10-22T05:41:14;10.30;63.00
68485;DHT22;55472;50.060;21.960;2022-10-22T05:43:42;10.30;62.90
68485;DHT22;55472;50.060;21.960;2022-10-22T05:46:11;10.40;62.80
68485;DHT22;55472;50.060;21.960;2022-10-22T05:48:54;10.50;62.80
68485;DHT22;55472;50.060;21.960;2022-10-22T05:51:23;10.50;62.40
68485;DHT22;55472;50.060;21.960;2022-10-22T05:53:52;10.60;62.40
68485;DHT22;55472;50.060;21.960;2022-10-22T05:56:20;10.70;62.40
68485;DHT22;55472;50.060;21.960;2022-10-22T05:58:47;10.70;62.40
68485;DHT22;55472;50.060;21.960;2022-10-22T06:01:19;10.80;62.30
68485;DHT22;55472;50.060;21.960;2022-10-22T06:03:52;10.80;61.90
68485;DHT22;55472;50.060;21.960;2022-10-22T06:06:35;10.80;61.90
68485;DHT22;55472;50.060;21.960;2022-10-22T06:09:30;10.90;61.90
68485;DHT22;55472;50.060;21.960;2022-10-22T06:11:58;11.00;61.70
68485;DHT22;55472;50.060;21.960;2022-10-22T06:14:25;11.00;61.80
68485;DHT22;55472;50.060;21.960;2022-10-22T06:16:52;11.00;62.10
68485;DHT22;55472;50.060;21.960;2022-10-22T06:19:20;11.00;61.80
68485;DHT22;55472;50.060;21.960;2022-10-22T06:21:47;11.10;61.70
68485;DHT22;55472;50.060;21.960;2022-10-22T06:24:14;11.20;61.60
68485;DHT22;55472;50.060;21.960;2022-10-22T06:26:40;11.20;61.50
68485;DHT22;55472;50.060;21.960;2022-10-22T06:29:07;11.20;61.10
68485;DHT22;55472;50.060;21.960;2022-10-22T06:31:33;11.30;61.30
68485;DHT22;55472;50.060;21.960;2022-10-22T06:34:03;11.40;61.00
68485;DHT22;55472;50.060;21.960;2022-10-22T06:36:30;11.40;61.00
68485;DHT22;55472;50.060;21.960;2022-10-22T06:38:56;11.50;60.90
68485;DHT22;55472;50.060;21.960;2022-10-22T06:41:22;11.50;61.10
68485;DHT22;55472;50.060;21.960;2022-10-22T06:43:48;11.60;60.80
68485;DHT22;55472;50.060;21.960;2022-10-22T06:46:18;11.70;60.20
68485;DHT22;55472;50.060;21.960;2022-10-22T06:48:53;11.90;60.00
68485;DHT22;55472;50.060;21.960;2022-10-22T06:51:20;12.00;60.00
68485;DHT22;55472;50.060;21.960;2022-10-22T06:53:47;12.10;59.40
68485;DHT22;55472;50.060;21.960;2022-10-22T06:56:15;12.20;59.30
68485;DHT22;55472;50.060;21.960;2022-10-22T06:58:46;12.40;59.40
68485;DHT22;55472;50.060;21.960;2022-10-22T07:01:18;12.50;58.60
68485;DHT22;55472;50.060;21.960;2022-10-22T07:03:46;12.70;58.50
68485;DHT22;55472;50.060;21.960;2022-10-22T07:06:14;12.90;58.00
68485;DHT22;55472;50.060;21.960;2022-10-22T07:08:41;13.30;57.10
68485;DHT22;55472;50.060;21.960;2022-10-22T07:11:09;13.60;56.40
68485;DHT22;55472;50.060;21.960;2022-10-22T07:13:40;13.90;56.00
68485;DHT22;55472;50.060;21.960;2022-10-22T07:16:06;14.20;54.70
68485;DHT22;55472;50.060;21.960;2022-10-22T07:18:34;14.40;54.90
68485;DHT22;55472;50.060;21.960;2022-10-22T07:21:01;14.70;54.10
68485;DHT22;55472;50.060;21.960;2022-10-22T07:23:27;14.80;53.40
68485;DHT22;55472;50.060;21.960;2022-10-22T07:25:54;14.90;53.20
68485;DHT22;55472;50.060;21.960;2022-10-22T07:28:21;15.00;53.10
68485;DHT22;55472;50.060;21.960;2022-10-22T07:30:47;15.20;53.10
68485;DHT22;55472;50.060;21.960;2022-10-22T07:33:13;15.40;52.70
68485;DHT22;55472;50.060;21.960;2022-10-22T07:35:40;15.60;51.90
68485;DHT22;55472;50.060;21.960;2022-10-22T07:38:07;15.90;51.50
68485;DHT22;55472;50.060;21.960;2022-10-22T07:40:34;16.40;50.90
68485;DHT22;55472;50.060;21.960;2022-10-22T07:43:01;16.90;49.40
68485;DHT22;55472;50.060;21.960;2022-10-22T07:45:26;17.20;48.60
68485;DHT22;55472;50.060;21.960;2022-10-22T07:47:53;17.60;47.70
68485;DHT22;55472;50.060;21.960;2022-10-22T07:50:19;18.50;46.10
68485;DHT22;55472;50.060;21.960;2022-10-22T07:52:45;19.90;44.10
68485;DHT22;55472;50.060;21.960;2022-10-22T07:55:11;21.20;41.30
68485;DHT22;55472;50.060;21.960;2022-10-22T07:57:39;22.60;39.70
68485;DHT22;55472;50.060;21.960;2022-10-22T08:00:06;24.00;37.90
68485;DHT22;55472;50.060;21.960;2022-10-22T08:02:33;25.30;35.90
68485;DHT22;55472;50.060;21.960;2022-10-22T08:04:59;26.60;34.30
68485;DHT22;55472;50.060;21.960;2022-10-22T08:07:25;27.30;32.90
68485;DHT22;55472;50.060;21.960;2022-10-22T08:09:51;28.20;32.30
68485;DHT22;55472;50.060;21.960;2022-10-22T08:12:17;29.00;31.50
68485;DHT22;55472;50.060;21.960;2022-10-22T08:14:43;30.00;30.50
68485;DHT22;55472;50.060;21.960;2022-10-22T08:17:09;30.60;30.00
68485;DHT22;55472;50.060;21.960;2022-10-22T08:19:35;31.10;28.90
68485;DHT22;55472;50.060;21.960;2022-10-22T08:22:01;30.70;29.40
68485;DHT22;55472;50.060;21.960;2022-10-22T08:24:27;29.50;30.50
68485;DHT22;55472;50.060;21.960;2022-10-22T08:26:53;28.30;31.10
68485;DHT22;55472;50.060;21.960;2022-10-22T08:29:21;28.90;31.40
68485;DHT22;55472;50.060;21.960;2022-10-22T08:31:48;30.00;30.50
68485;DHT22;55472;50.060;21.960;2022-10-22T08:34:15;31.00;29.50
68485;DHT22;55472;50.060;21.960;2022-10-22T08:36:41;31.50;28.70
68485;DHT22;55472;50.060;21.960;2022-10-22T08:39:07;32.20;28.40
68485;DHT22;55472;50.060;21.960;2022-10-22T08:45:14;32.90;27.60
68485;DHT22;55472;50.060;21.960;2022-10-22T08:50:04;30.50;30.10
68485;DHT22;55472;50.060;21.960;2022-10-22T08:52:33;28.80;30.90
68485;DHT22;55472;50.060;21.960;2022-10-22T08:55:02;26.80;33.20
68485;DHT22;55472;50.060;21.960;2022-10-22T09:00:38;23.10;37.70
68485;DHT22;55472;50.060;21.960;2022-10-22T09:03:57;21.50;40.40
68485;DHT22;55472;50.060;21.960;2022-10-22T09:06:14;20.50;42.60
68485;DHT22;55472;50.060;21.960;2022-10-22T09:08:43;19.60;44.00
68485;DHT22;55472;50.060;21.960;2022-10-22T09:13:36;18.60;46.30
68485;DHT22;55472;50.060;21.960;2022-10-22T09:16:29;18.20;47.30
68485;DHT22;55472;50.060;21.960;2022-10-22T09:19:28;18.10;47.40
68485;DHT22;55472;50.060;21.960;2022-10-22T09:25:22;19.10;46.00
68485;DHT22;55472;50.060;21.960;2022-10-22T09:27:49;19.70;44.40
68485;DHT22;55472;50.060;21.960;2022-10-22T09:30:22;19.30;44.80
68485;DHT22;55472;50.060;21.960;2022-10-22T09:35:51;18.40;46.30
68485;DHT22;55472;50.060;21.960;2022-10-22T09:38:39;18.10;47.50
68485;DHT22;55472;50.060;21.960;2022-10-22T09:41:08;17.70;48.40
68485;DHT22;55472;50.060;21.960;2022-10-22T09:43:34;17.40;48.40
68485;DHT22;55472;50.060;21.960;2022-10-22T09:46:03;17.20;49.30
68485;DHT22;55472;50.060;21.960;2022-10-22T09:48:35;17.00;49.90
68485;DHT22;55472;50.060;21.960;2022-10-22T09:51:14;16.90;50.40
68485;DHT22;55472;50.060;21.960;2022-10-22T09:53:58;16.70;50.50
68485;DHT22;55472;50.060;21.960;2022-10-22T09:56:38;16.60;51.10
68485;DHT22;55472;50.060;21.960;2022-10-22T09:59:16;16.50;50.90
68485;DHT22;55472;50.060;21.960;2022-10-22T10:01:43;16.40;51.80
68485;DHT22;55472;50.060;21.960;2022-10-22T10:04:14;16.40;52.10
68485;DHT22;55472;50.060;21.960;2022-10-22T10:06:43;16.30;51.50
68485;DHT22;55472;50.060;21.960;2022-10-22T10:09:16;16.20;51.60
68485;DHT22;55472;50.060;21.960;2022-10-22T10:11:51;16.20;51.20
68485;DHT22;55472;50.060;21.960;2022-10-22T10:17:24;16.10;51.70
68485;DHT22;55472;50.060;21.960;2022-10-22T10:20:12;16.00;51.40
68485;DHT22;55472;50.060;21.960;2022-10-22T10:31:33;15.90;52.70
68485;DHT22;55472;50.060;21.960;2022-10-22T10:37:27;15.90;52.70
68485;DHT22;55472;50.060;21.960;2022-10-22T10:45:00;15.90;53.30
68485;DHT22;55472;50.060;21.960;2022-10-22T10:58:02;16.00;53.30
68485;DHT22;55472;50.060;21.960;2022-10-22T11:00:46;16.10;52.90
68485;DHT22;55472;50.060;21.960;2022-10-22T11:04:33;16.20;52.80
68485;DHT22;55472;50.060;21.960;2022-10-22T11:06:33;16.20;52.40
68485;DHT22;55472;50.060;21.960;2022-10-22T11:09:05;16.20;52.40
68485;DHT22;55472;50.060;21.960;2022-10-22T11:11:44;16.10;52.50
68485;DHT22;55472;50.060;21.960;2022-10-22T11:14:30;16.10;52.70
68485;DHT22;55472;50.060;21.960;2022-10-22T11:17:10;16.00;52.40
68485;DHT22;55472;50.060;21.960;2022-10-22T11:20:01;16.00;52.40
68485;DHT22;55472;50.060;21.960;2022-10-22T11:23:08;15.90;52.70
68485;DHT22;55472;50.060;21.960;2022-10-22T11:26:07;15.90;53.00
68485;DHT22;55472;50.060;21.960;2022-10-22T11:28:46;15.80;53.60
68485;DHT22;55472;50.060;21.960;2022-10-22T11:31:22;15.90;53.40
68485;DHT22;55472;50.060;21.960;2022-10-22T11:34:05;15.80;53.80
68485;DHT22;55472;50.060;21.960;2022-10-22T11:36:35;15.80;53.70
68485;DHT22;55472;50.060;21.960;2022-10-22T11:39:02;15.80;53.40
68485;DHT22;55472;50.060;21.960;2022-10-22T11:41:31;15.70;53.50
68485;DHT22;55472;50.060;21.960;2022-10-22T11:44:09;15.70;53.70
68485;DHT22;55472;50.060;21.960;2022-10-22T11:46:46;15.60;53.70
68485;DHT22;55472;50.060;21.960;2022-10-22T11:49:26;15.60;54.00
68485;DHT22;55472;50.060;21.960;2022-10-22T11:55:02;15.50;54.60
68485;DHT22;55472;50.060;21.960;2022-10-22T11:58:32;15.40;54.80
68485;DHT22;55472;50.060;21.960;2022-10-22T12:06:21;15.30;55.50
68485;DHT22;55472;50.060;21.960;2022-10-22T12:16:56;15.20;56.20
68485;DHT22;55472;50.060;21.960;2022-10-22T12:22:26;15.10;56.20
68485;DHT22;55472;50.060;21.960;2022-10-22T12:24:58;15.00;56.70
68485;DHT22;55472;50.060;21.960;2022-10-22T12:27:37;15.00;57.00
68485;DHT22;55472;50.060;21.960;2022-10-22T12:30:33;15.00;57.10
68485;DHT22;55472;50.060;21.960;2022-10-22T12:33:02;15.00;57.70
68485;DHT22;55472;50.060;21.960;2022-10-22T12:35:32;14.90;57.70
68485;DHT22;55472;50.060;21.960;2022-10-22T12:38:12;14.90;58.20
68485;DHT22;55472;50.060;21.960;2022-10-22T12:40:40;14.90;57.90
68485;DHT22;55472;50.060;21.960;2022-10-22T12:43:15;14.80;58.20
68485;DHT22;55472;50.060;21.960;2022-10-22T12:45:45;14.80;58.40
68485;DHT22;55472;50.060;21.960;2022-10-22T12:48:22;14.80;59.10
68485;DHT22;55472;50.060;21.960;2022-10-22T12:50:52;14.70;59.40
68485;DHT22;55472;50.060;21.960;2022-10-22T12:53:31;14.70;60.10
68485;DHT22;55472;50.060;21.960;2022-10-22T12:56:06;14.60;59.80
68485;DHT22;55472;50.060;21.960;2022-10-22T12:58:44;14.60;60.90
68485;DHT22;55472;50.060;21.960;2022-10-22T13:01:14;14.50;60.80
68485;DHT22;55472;50.060;21.960;2022-10-22T13:03:43;14.40;61.10
68485;DHT22;55472;50.060;21.960;2022-10-22T13:08:55;14.30;61.70
68485;DHT22;55472;50.060;21.960;2022-10-22T13:11:31;14.20;62.30
68485;DHT22;55472;50.060;21.960;2022-10-22T13:14:25;14.20;63.70
68485;DHT22;55472;50.060;21.960;2022-10-22T13:20:22;14.10;65.50
68485;DHT22;55472;50.060;21.960;2022-10-22T13:23:18;14.00;66.70
68485;DHT22;55472;50.060;21.960;2022-10-22T13:25:56;13.90;67.00
68485;DHT22;55472;50.060;21.960;2022-10-22T13:28:24;13.90;68.50
68485;DHT22;55472;50.060;21.960;2022-10-22T13:33:29;13.70;69.40
68485;DHT22;55472;50.060;21.960;2022-10-22T13:35:58;13.70;70.10
68485;DHT22;55472;50.060;21.960;2022-10-22T13:38:25;13.60;70.70
68485;DHT22;55472;50.060;21.960;2022-10-22T13:40:53;13.50;71.30
68485;DHT22;55472;50.060;21.960;2022-10-22T13:43:19;13.50;71.30
68485;DHT22;55472;50.060;21.960;2022-10-22T13:45:47;13.40;72.20
68485;DHT22;55472;50.060;21.960;2022-10-22T13:48:19;13.30;72.80
68485;DHT22;55472;50.060;21.960;2022-10-22T13:50:49;13.30;72.60
68485;DHT22;55472;50.060;21.960;2022-10-22T13:53:19;13.20;73.10
68485;DHT22;55472;50.060;21.960;2022-10-22T13:55:46;13.10;73.70
68485;DHT22;55472;50.060;21.960;2022-10-22T13:58:20;13.10;73.80
68485;DHT22;55472;50.060;21.960;2022-10-22T14:00:55;13.00;74.70
68485;DHT22;55472;50.060;21.960;2022-10-22T14:03:26;12.90;74.60
68485;DHT22;55472;50.060;21.960;2022-10-22T14:05:53;12.90;74.90
68485;DHT22;55472;50.060;21.960;2022-10-22T14:08:21;12.80;75.20
68485;DHT22;55472;50.060;21.960;2022-10-22T14:10:48;12.70;75.70
68485;DHT22;55472;50.060;21.960;2022-10-22T14:13:15;12.60;76.20
68485;DHT22;55472;50.060;21.960;2022-10-22T14:15:44;12.50;76.40
68485;DHT22;55472;50.060;21.960;2022-10-22T14:18:18;12.50;76.50
68485;DHT22;55472;50.060;21.960;2022-10-22T14:20:55;12.40;76.90
68485;DHT22;55472;50.060;21.960;2022-10-22T14:23:26;12.40;77.50
68485;DHT22;55472;50.060;21.960;2022-10-22T14:25:53;12.40;78.00
68485;DHT22;55472;50.060;21.960;2022-10-22T14:28:19;12.30;78.70
68485;DHT22;55472;50.060;21.960;2022-10-22T14:30:46;12.30;79.10
68485;DHT22;55472;50.060;21.960;2022-10-22T14:33:22;12.20;79.70
68485;DHT22;55472;50.060;21.960;2022-10-22T14:35:49;12.20;79.70
68485;DHT22;55472;50.060;21.960;2022-10-22T14:38:16;12.10;79.90
68485;DHT22;55472;50.060;21.960;2022-10-22T14:40:43;12.10;80.70
68485;DHT22;55472;50.060;21.960;2022-10-22T14:43:20;12.00;81.30
68485;DHT22;55472;50.060;21.960;2022-10-22T14:45:48;12.00;81.00
68485;DHT22;55472;50.060;21.960;2022-10-22T14:48:14;11.90;81.90
68485;DHT22;55472;50.060;21.960;2022-10-22T14:50:44;11.90;82.30
68485;DHT22;55472;50.060;21.960;2022-10-22T14:53:11;11.80;82.70
68485;DHT22;55472;50.060;21.960;2022-10-22T14:55:39;11.70;83.40
68485;DHT22;55472;50.060;21.960;2022-10-22T14:58:06;11.70;84.20
68485;DHT22;55472;50.060;21.960;2022-10-22T15:00:32;11.70;84.30
68485;DHT22;55472;50.060;21.960;2022-10-22T15:03:02;11.60;84.50
68485;DHT22;55472;50.060;21.960;2022-10-22T15:05:28;11.60;84.60
68485;DHT22;55472;50.060;21.960;2022-10-22T15:07:54;11.60;85.00
68485;DHT22;55472;50.060;21.960;2022-10-22T15:10:20;11.50;85.80
68485;DHT22;55472;50.060;21.960;2022-10-22T15:12:46;11.50;85.90
68485;DHT22;55472;50.060;21.960;2022-10-22T15:15:12;11.40;86.50
68485;DHT22;55472;50.060;21.960;2022-10-22T15:17:38;11.40;86.80
68485;DHT22;55472;50.060;21.960;2022-10-22T15:20:05;11.30;86.50
68485;DHT22;55472;50.060;21.960;2022-10-22T15:22:32;11.30;87.30
68485;DHT22;55472;50.060;21.960;2022-10-22T15:25:01;11.30;87.20
68485;DHT22;55472;50.060;21.960;2022-10-22T15:27:31;11.20;87.10
68485;DHT22;55472;50.060;21.960;2022-10-22T15:29:57;11.10;87.80
68485;DHT22;55472;50.060;21.960;2022-10-22T15:32:27;11.10;88.50
68485;DHT22;55472;50.060;21.960;2022-10-22T15:34:54;11.10;88.80
68485;DHT22;55472;50.060;21.960;2022-10-22T15:37:21;11.10;88.80
68485;DHT22;55472;50.060;21.960;2022-10-22T15:39:48;11.10;88.40
68485;DHT22;55472;50.060;21.960;2022-10-22T15:42:14;11.10;88.40
68485;DHT22;55472;50.060;21.960;2022-10-22T15:44:40;11.00;87.80
68485;DHT22;55472;50.060;21.960;2022-10-22T15:47:06;11.00;88.40
68485;DHT22;55472;50.060;21.960;2022-10-22T15:49:35;11.00;88.40
68485;DHT22;55472;50.060;21.960;2022-10-22T15:52:03;11.00;88.50
68485;DHT22;55472;50.060;21.960;2022-10-22T15:54:30;10.90;88.90
68485;DHT22;55472;50.060;21.960;2022-10-22T15:56:57;10.90;88.90
68485;DHT22;55472;50.060;21.960;2022-10-22T15:59:24;10.80;88.90
68485;DHT22;55472;50.060;21.960;2022-10-22T16:01:51;10.80;89.10
68485;DHT22;55472;50.060;21.960;2022-10-22T16:04:17;10.80;89.20
68485;DHT22;55472;50.060;21.960;2022-10-22T16:06:49;10.90;89.80
68485;DHT22;55472;50.060;21.960;2022-10-22T16:09:24;10.80;89.90
68485;DHT22;55472;50.060;21.960;2022-10-22T16:11:52;10.80;89.30
68485;DHT22;55472;50.060;21.960;2022-10-22T16:14:24;10.80;89.70
68485;DHT22;55472;50.060;21.960;2022-10-22T16:16:52;10.80;89.70
68485;DHT22;55472;50.060;21.960;2022-10-22T16:19:21;10.80;89.80
68485;DHT22;55472;50.060;21.960;2022-10-22T16:21:50;10.80;89.30
68485;DHT22;55472;50.060;21.960;2022-10-22T16:24:18;10.70;89.80
68485;DHT22;55472;50.060;21.960;2022-10-22T16:26:44;10.70;89.60
68485;DHT22;55472;50.060;21.960;2022-10-22T16:29:10;10.70;90.00
68485;DHT22;55472;50.060;21.960;2022-10-22T16:31:38;10.70;89.80
68485;DHT22;55472;50.060;21.960;2022-10-22T16:34:05;10.70;90.10
68485;DHT22;55472;50.060;21.960;2022-10-22T16:36:32;10.60;90.40
68485;DHT22;55472;50.060;21.960;2022-10-22T16:38:58;10.60;90.90
68485;DHT22;55472;50.060;21.960;2022-10-22T16:41:24;10.60;91.70
68485;DHT22;55472;50.060;21.960;2022-10-22T16:43:53;10.60;91.50
68485;DHT22;55472;50.060;21.960;2022-10-22T16:46:21;10.60;91.80
68485;DHT22;55472;50.060;21.960;2022-10-22T16:48:51;10.60;91.50
68485;DHT22;55472;50.060;21.960;2022-10-22T16:51:21;10.60;91.40
68485;DHT22;55472;50.060;21.960;2022-10-22T16:53:50;10.60;91.40
68485;DHT22;55472;50.060;21.960;2022-10-22T16:56:17;10.60;91.50
68485;DHT22;55472;50.060;21.960;2022-10-22T16:58:48;10.60;91.30
68485;DHT22;55472;50.060;21.960;2022-10-22T17:01:17;10.50;91.50
68485;DHT22;55472;50.060;21.960;2022-10-22T17:03:44;10.60;91.70
68485;DHT22;55472;50.060;21.960;2022-10-22T17:06:10;10.50;91.70
68485;DHT22;55472;50.060;21.960;2022-10-22T17:08:38;10.50;91.90
68485;DHT22;55472;50.060;21.960;2022-10-22T17:11:10;10.50;91.80
68485;DHT22;55472;50.060;21.960;2022-10-22T17:13:39;10.50;91.90
68485;DHT22;55472;50.060;21.960;2022-10-22T17:16:09;10.50;91.90
68485;DHT22;55472;50.060;21.960;2022-10-22T17:18:39;10.50;92.10
68485;DHT22;55472;50.060;21.960;2022-10-22T17:21:08;10.40;92.70
68485;DHT22;55472;50.060;21.960;2022-10-22T17:23:35;10.40;92.80
68485;DHT22;55472;50.060;21.960;2022-10-22T17:26:03;10.40;92.90
68485;DHT22;55472;50.060;21.960;2022-10-22T17:28:31;10.40;93.00
68485;DHT22;55472;50.060;21.960;2022-10-22T17:31:21;10.40;93.40